createdAt,value
2023-03-21T00:01:52.550Z,96548.75
2023-03-21T00:04:21.077Z,96539.19
2023-03-21T00:06:49.458Z,96544.66
2023-03-21T00:09:17.964Z,96542.22
2023-03-21T00:11:46.647Z,96526.91
2023-03-21T00:14:20.303Z,96517.69
2023-03-21T00:16:50.707Z,96521.72
2023-03-21T00:19:20.846Z,96517.94
2023-03-21T00:22:08.676Z,96505.88
2023-03-21T00:24:38.327Z,96513.00
2023-03-21T00:27:33.676Z,96512.88
2023-03-21T00:29:56.853Z,96507.75
2023-03-21T00:32:25.181Z,96506.06
2023-03-21T00:35:23.352Z,96500.25
2023-03-21T00:37:41.764Z,96499.25
2023-03-21T00:40:23.022Z,96507.75
2023-03-21T00:42:53.591Z,96502.94
2023-03-21T00:45:23.397Z,96503.75
2023-03-21T00:47:51.810Z,96502.75
2023-03-21T00:50:20.438Z,96503.94
2023-03-21T00:52:48.704Z,96498.63
2023-03-21T00:55:18.256Z,96492.50
2023-03-21T00:57:50.161Z,96495.97
2023-03-21T01:00:23.056Z,96481.22
2023-03-21T01:03:04.359Z,96480.56
2023-03-21T01:05:57.351Z,96484.88
2023-03-21T01:08:31.190Z,96473.44
2023-03-21T01:11:05.516Z,96475.75
2023-03-21T01:13:36.398Z,96473.25
2023-03-21T01:16:08.583Z,96477.69
2023-03-21T01:18:38.260Z,96471.03
2023-03-21T01:21:09.628Z,96463.41
2023-03-21T01:23:38.264Z,96467.03
2023-03-21T01:26:07.083Z,96465.03
2023-03-21T01:28:36.116Z,96467.69
2023-03-21T01:31:06.753Z,96467.34
2023-03-21T01:33:34.969Z,96465.00
2023-03-21T01:36:12.752Z,96463.72
2023-03-21T01:38:41.964Z,96464.00
2023-03-21T01:41:20.067Z,96452.88
2023-03-21T01:43:48.806Z,96457.34
2023-03-21T01:46:51.499Z,96451.53
2023-03-21T01:49:27.989Z,96448.69
2023-03-21T01:52:06.555Z,96464.47
2023-03-21T01:54:41.094Z,96459.66
2023-03-21T01:57:11.371Z,96457.81
2023-03-21T01:59:42.542Z,96455.66
2023-03-21T02:02:13.827Z,96452.03
2023-03-21T02:04:50.752Z,96446.88
2023-03-21T02:07:23.175Z,96437.44
2023-03-21T02:09:52.552Z,96437.44
2023-03-21T02:12:21.382Z,96445.22
2023-03-21T02:14:50.579Z,96445.22
2023-03-21T02:17:27.007Z,96445.03
2023-03-21T02:20:12.929Z,96441.06
2023-03-21T02:23:11.317Z,96441.34
2023-03-21T02:26:36.173Z,96444.47
2023-03-21T02:29:15.401Z,96448.78
2023-03-21T02:31:49.027Z,96452.25
2023-03-21T02:34:37.180Z,96439.63
2023-03-21T02:37:17.832Z,96436.31
2023-03-21T02:40:11.059Z,96437.66
2023-03-21T02:42:51.616Z,96432.69
2023-03-21T02:45:28.033Z,96434.88
2023-03-21T02:47:58.896Z,96446.66
2023-03-21T02:50:30.004Z,96442.50
2023-03-21T02:53:00.250Z,96442.84
2023-03-21T02:55:30.558Z,96444.56
2023-03-21T02:58:10.430Z,96450.34
2023-03-21T03:00:42.928Z,96445.06
2023-03-21T03:03:17.967Z,96443.69
2023-03-21T03:05:50.927Z,96444.78
2023-03-21T03:08:38.373Z,96439.00
2023-03-21T03:11:16.131Z,96440.16
2023-03-21T03:14:25.080Z,96439.34
2023-03-21T03:17:02.547Z,96431.75
2023-03-21T03:19:36.635Z,96432.38
2023-03-21T03:22:11.957Z,96435.88
2023-03-21T03:24:44.353Z,96438.00
2023-03-21T03:27:17.691Z,96428.19
2023-03-21T03:29:47.934Z,96434.66
2023-03-21T03:32:18.631Z,96426.97
2023-03-21T03:34:49.711Z,96427.09
2023-03-21T03:37:21.737Z,96422.09
2023-03-21T03:39:55.381Z,96419.44
2023-03-21T03:42:28.667Z,96426.91
2023-03-21T03:44:57.864Z,96427.53
2023-03-21T03:47:34.885Z,96419.41
2023-03-21T03:50:09.925Z,96424.53
2023-03-21T03:52:53.600Z,96421.53
2023-03-21T03:55:28.111Z,96421.53
2023-03-21T03:57:56.943Z,96421.53
2023-03-21T04:00:25.828Z,96424.66
2023-03-21T04:02:54.236Z,96420.41
2023-03-21T04:05:22.663Z,96422.00
2023-03-21T04:07:51.270Z,96416.69
2023-03-21T04:10:21.163Z,96412.88
2023-03-21T04:12:51.107Z,96416.34
2023-03-21T04:15:20.425Z,96411.03
2023-03-21T04:17:48.839Z,96412.69
2023-03-21T04:20:30.077Z,96419.31
2023-03-21T04:23:02.326Z,96419.78
2023-03-21T04:25:33.971Z,96422.25
2023-03-21T04:28:04.044Z,96423.28
2023-03-21T04:30:34.256Z,96418.78
2023-03-21T04:33:02.555Z,96427.72
2023-03-21T04:35:30.851Z,96415.91
2023-03-21T04:37:59.178Z,96414.69
2023-03-21T04:40:27.560Z,96411.88
2023-03-21T04:42:55.857Z,96411.22
2023-03-21T04:45:25.499Z,96415.25
2023-03-21T04:47:53.814Z,96414.22
2023-03-21T04:50:22.160Z,96414.22
2023-03-21T04:52:50.455Z,96417.91
2023-03-21T04:55:21.660Z,96410.28
2023-03-21T04:57:50.030Z,96411.28
2023-03-21T05:00:18.755Z,96416.28
2023-03-21T05:02:48.437Z,96410.09
2023-03-21T05:05:16.690Z,96408.53
2023-03-21T05:07:45.197Z,96418.19
2023-03-21T05:10:13.691Z,96409.53
2023-03-21T05:12:42.297Z,96415.38
2023-03-21T05:15:11.124Z,96414.03
2023-03-21T05:17:39.365Z,96415.53
2023-03-21T05:20:11.714Z,96407.50
2023-03-21T05:22:41.365Z,96414.63
2023-03-21T05:25:11.712Z,96414.72
2023-03-21T05:27:45.163Z,96414.69
2023-03-21T05:30:15.444Z,96416.19
2023-03-21T05:32:43.977Z,96414.47
2023-03-21T05:35:14.292Z,96419.91
2023-03-21T05:37:42.666Z,96419.03
2023-03-21T05:40:12.260Z,96417.94
2023-03-21T05:42:40.582Z,96414.63
2023-03-21T05:45:09.488Z,96420.06
2023-03-21T05:47:37.735Z,96419.59
2023-03-21T05:50:07.174Z,96417.25
2023-03-21T05:52:36.936Z,96422.72
2023-03-21T05:55:05.916Z,96419.22
2023-03-21T05:57:39.096Z,96422.72
2023-03-21T06:00:09.176Z,96426.16
2023-03-21T06:02:37.944Z,96424.25
2023-03-21T06:05:07.288Z,96424.06
2023-03-21T06:07:37.113Z,96431.63
2023-03-21T06:10:06.155Z,96427.88
2023-03-21T06:12:34.451Z,96435.03
2023-03-21T06:15:02.732Z,96432.94
2023-03-21T06:17:30.984Z,96434.25
2023-03-21T06:20:01.145Z,96437.53
2023-03-21T06:22:29.477Z,96438.66
2023-03-21T06:24:59.053Z,96442.22
2023-03-21T06:27:27.414Z,96432.31
2023-03-21T06:29:55.658Z,96446.44
2023-03-21T06:32:23.919Z,96444.19
2023-03-21T06:34:52.428Z,96444.91
2023-03-21T06:37:21.225Z,96445.47
2023-03-21T06:39:49.472Z,96441.63
2023-03-21T06:42:19.042Z,96446.34
2023-03-21T06:44:47.265Z,96445.59
2023-03-21T06:47:15.720Z,96441.28
2023-03-21T06:49:44.718Z,96440.25
2023-03-21T06:52:12.974Z,96439.09
2023-03-21T06:54:41.374Z,96438.50
2023-03-21T06:57:09.647Z,96438.34
2023-03-21T06:59:41.497Z,96432.59
2023-03-21T07:02:11.223Z,96430.09
2023-03-21T07:04:39.522Z,96434.44
2023-03-21T07:07:07.795Z,96431.06
2023-03-21T07:09:36.054Z,96437.34
2023-03-21T07:12:04.438Z,96433.06
2023-03-21T07:14:34.566Z,96434.53
2023-03-21T07:17:04.202Z,96432.53
2023-03-21T07:19:32.453Z,96427.22
2023-03-21T07:22:01.580Z,96429.88
2023-03-21T07:24:29.856Z,96434.44
2023-03-21T07:26:58.089Z,96432.00
2023-03-21T07:29:26.346Z,96433.72
2023-03-21T07:31:54.682Z,96438.03
2023-03-21T07:34:24.387Z,96424.88
2023-03-21T07:36:52.639Z,96432.91
2023-03-21T07:39:21.173Z,96433.34
2023-03-21T07:41:49.400Z,96431.47
2023-03-21T07:44:17.690Z,96437.66
2023-03-21T07:46:45.899Z,96441.34
2023-03-21T07:49:14.218Z,96438.47
2023-03-21T07:51:43.895Z,96437.66
2023-03-21T07:54:12.257Z,96442.81
2023-03-21T07:56:40.580Z,96439.94
2023-03-21T07:59:09.947Z,96435.81
2023-03-21T08:01:38.280Z,96435.19
2023-03-21T08:04:06.850Z,96433.31
2023-03-21T08:09:18.699Z,96432.91
2023-03-21T08:11:46.956Z,96430.22
2023-03-21T08:14:15.363Z,96431.63
2023-03-21T08:16:43.750Z,96426.44
2023-03-21T08:19:12.043Z,96425.31
2023-03-21T08:21:40.838Z,96425.28
2023-03-21T08:24:09.180Z,96433.56
2023-03-21T08:26:38.826Z,96441.47
2023-03-21T08:29:07.450Z,96430.88
2023-03-21T08:31:35.759Z,96426.69
2023-03-21T08:34:04.332Z,96430.50
2023-03-21T08:36:32.788Z,96419.63
2023-03-21T08:39:05.516Z,96427.28
2023-03-21T08:41:34.007Z,96412.25
2023-03-21T08:44:03.762Z,96421.25
2023-03-21T08:46:32.265Z,96412.84
2023-03-21T08:49:00.765Z,96419.63
2023-03-21T08:51:29.137Z,96421.66
2023-03-21T08:53:57.409Z,96418.88
2023-03-21T08:56:25.715Z,96418.88
2023-03-21T08:58:53.984Z,96417.47
2023-03-21T09:01:23.677Z,96414.41
2023-03-21T09:03:52.025Z,96418.88
2023-03-21T09:06:20.277Z,96415.19
2023-03-21T09:08:48.670Z,96417.25
2023-03-21T09:11:16.991Z,96414.13
2023-03-21T09:13:45.251Z,96412.63
2023-03-21T09:16:13.626Z,96405.41
2023-03-21T09:18:47.255Z,96404.13
2023-03-21T09:21:17.135Z,96403.50
2023-03-21T09:23:46.248Z,96404.94
2023-03-21T09:26:15.505Z,96403.63
2023-03-21T09:28:46.206Z,96398.06
2023-03-21T09:31:16.470Z,96399.31
2023-03-21T09:33:46.230Z,96401.56
2023-03-21T09:36:15.502Z,96398.88
2023-03-21T09:38:45.464Z,96404.41
2023-03-21T09:41:30.817Z,96398.94
2023-03-21T09:44:08.237Z,96391.03
2023-03-21T09:46:42.745Z,96387.78
2023-03-21T09:49:18.158Z,96386.88
2023-03-21T09:51:48.836Z,96388.31
2023-03-21T09:54:20.934Z,96394.19
2023-03-21T09:56:51.245Z,96389.25
2023-03-21T09:59:25.127Z,96384.13
2023-03-21T10:01:55.376Z,96390.69
2023-03-21T10:04:25.143Z,96389.94
2023-03-21T10:06:57.956Z,96379.44
2023-03-21T10:09:28.269Z,96384.44
2023-03-21T10:12:00.284Z,96384.81
2023-03-21T10:14:32.302Z,96379.91
2023-03-21T10:17:02.589Z,96381.91
2023-03-21T10:19:32.271Z,96372.97
2023-03-21T10:22:02.693Z,96371.75
2023-03-21T10:24:34.654Z,96373.88
2023-03-21T10:27:04.393Z,96364.56
2023-03-21T10:29:37.185Z,96366.69
2023-03-21T10:32:06.267Z,96362.75
2023-03-21T10:34:38.946Z,96365.00
2023-03-21T10:37:07.631Z,96353.72
2023-03-21T10:39:37.810Z,96357.16
2023-03-21T10:42:06.783Z,96365.00
2023-03-21T10:44:36.124Z,96356.19
2023-03-21T10:47:07.036Z,96355.81
2023-03-21T10:49:56.425Z,96353.94
2023-03-21T10:52:28.917Z,96357.25
2023-03-21T10:55:09.587Z,96351.50
2023-03-21T10:57:38.863Z,96349.81
2023-03-21T11:00:17.022Z,96348.50
2023-03-21T11:02:49.300Z,96355.75
2023-03-21T11:05:24.276Z,96348.00
2023-03-21T11:08:04.551Z,96346.75
2023-03-21T11:10:34.159Z,96348.56
2023-03-21T11:13:05.561Z,96340.56
2023-03-21T11:15:39.619Z,96338.19
2023-03-21T11:18:16.390Z,96329.06
2023-03-21T11:20:51.132Z,96330.41
2023-03-21T11:23:20.857Z,96322.28
2023-03-21T11:25:50.478Z,96316.97
2023-03-21T11:28:21.774Z,96326.63
2023-03-21T11:30:51.852Z,96318.69
2023-03-21T11:33:21.667Z,96313.97
2023-03-21T11:36:02.180Z,96309.47
2023-03-21T11:38:31.760Z,96309.63
2023-03-21T11:41:01.178Z,96304.47
2023-03-21T11:43:33.044Z,96301.75
2023-03-21T11:46:06.479Z,96296.94
2023-03-21T11:48:40.617Z,96293.66
2023-03-21T11:51:19.478Z,96289.44
2023-03-21T11:53:51.614Z,96285.00
2023-03-21T11:56:24.455Z,96281.03
2023-03-21T11:59:03.575Z,96280.66
2023-03-21T12:01:39.290Z,96275.41
2023-03-21T12:04:23.875Z,96265.34
2023-03-21T12:06:55.395Z,96259.13
2023-03-21T12:09:41.879Z,96248.69
2023-03-21T12:12:36.482Z,96242.50
2023-03-21T12:15:14.149Z,96246.00
2023-03-21T12:17:51.649Z,96236.16
2023-03-21T12:20:26.102Z,96224.88
2023-03-21T12:23:06.755Z,96225.69
2023-03-21T12:25:42.055Z,96221.66
2023-03-21T12:28:32.019Z,96229.03
2023-03-21T12:31:09.146Z,96220.50
2023-03-21T12:33:58.275Z,96219.00
2023-03-21T12:36:37.075Z,96217.28
2023-03-21T12:39:15.155Z,96211.44
2023-03-21T12:41:45.729Z,96215.41
2023-03-21T12:44:16.464Z,96208.06
2023-03-21T12:46:46.966Z,96211.91
2023-03-21T12:49:15.991Z,96213.88
2023-03-21T12:51:46.383Z,96206.72
2023-03-21T12:54:18.642Z,96221.88
2023-03-21T12:56:51.552Z,96218.09
2023-03-21T12:59:26.148Z,96205.59
2023-03-21T13:01:57.426Z,96190.50
2023-03-21T13:04:48.947Z,96186.56
2023-03-21T13:07:20.172Z,96191.31
2023-03-21T13:09:51.296Z,96183.28
2023-03-21T13:12:32.515Z,96174.38
2023-03-21T13:15:23.229Z,96177.78
2023-03-21T13:17:55.886Z,96176.59
2023-03-21T13:20:28.111Z,96169.88
2023-03-21T13:22:56.528Z,96170.31
2023-03-21T13:25:28.203Z,96164.22
2023-03-21T13:28:01.424Z,96159.41
2023-03-21T13:30:32.343Z,96152.97
2023-03-21T13:33:06.823Z,96152.47
2023-03-21T13:35:38.336Z,96156.75
2023-03-21T13:38:12.913Z,96159.56
2023-03-21T13:40:45.388Z,96154.59
2023-03-21T13:43:36.241Z,96158.63
2023-03-21T13:46:08.286Z,96153.41
2023-03-21T13:49:00.338Z,96147.53
2023-03-21T13:51:47.450Z,96146.88
2023-03-21T13:54:22.545Z,96149.66
2023-03-21T13:56:54.024Z,96146.53
2023-03-21T13:59:38.766Z,96139.28
2023-03-21T14:02:23.467Z,96137.31
2023-03-21T14:05:04.968Z,96124.00
2023-03-21T14:07:35.467Z,96129.88
2023-03-21T14:10:06.444Z,96115.13
2023-03-21T14:12:41.969Z,96123.22
2023-03-21T14:15:17.934Z,96125.63
2023-03-21T14:17:56.935Z,96126.81
2023-03-21T14:20:27.879Z,96118.69
2023-03-21T14:22:56.503Z,96126.31
2023-03-21T14:25:31.448Z,96115.44
2023-03-21T14:28:05.961Z,96108.50
2023-03-21T14:30:36.213Z,96115.09
2023-03-21T14:33:08.745Z,96115.31
2023-03-21T14:35:37.460Z,96116.97
2023-03-21T14:38:09.034Z,96105.94
2023-03-21T14:40:37.583Z,96107.09
2023-03-21T14:43:07.994Z,96100.75
2023-03-21T14:45:38.045Z,96102.78
2023-03-21T14:48:09.753Z,96100.31
2023-03-21T14:50:41.634Z,96098.97
2023-03-21T14:53:17.214Z,96104.38
2023-03-21T14:55:47.795Z,96089.69
2023-03-21T14:58:19.112Z,96090.69
2023-03-21T15:00:50.138Z,96098.72
2023-03-21T15:03:19.479Z,96093.94
2023-03-21T15:05:48.107Z,96084.81
2023-03-21T15:08:18.596Z,96086.09
2023-03-21T15:11:06.210Z,96080.09
2023-03-21T15:13:38.118Z,96078.53
2023-03-21T15:16:07.357Z,96086.78
2023-03-21T15:18:38.350Z,96077.31
2023-03-21T15:21:09.780Z,96082.09
2023-03-21T15:23:40.197Z,96078.47
2023-03-21T15:26:08.922Z,96083.03
2023-03-21T15:28:38.557Z,96084.66
2023-03-21T15:31:08.041Z,96079.69
2023-03-21T15:33:36.377Z,96082.44
2023-03-21T15:36:10.736Z,96082.41
2023-03-21T15:38:40.699Z,96087.66
2023-03-21T15:41:16.544Z,96098.88
2023-03-21T15:43:46.879Z,96094.38
2023-03-21T15:46:17.788Z,96086.13
2023-03-21T15:48:46.827Z,96071.47
2023-03-21T15:51:22.142Z,96085.50
2023-03-21T15:53:54.015Z,96065.69
2023-03-21T15:56:23.464Z,96074.28
2023-03-21T15:58:54.180Z,96077.09
2023-03-21T16:01:26.315Z,96081.06
2023-03-21T16:03:57.609Z,96082.06
2023-03-21T16:06:33.473Z,96079.59
2023-03-21T16:09:11.386Z,96079.53
2023-03-21T16:11:40.834Z,96078.84
2023-03-21T16:14:10.593Z,96085.84
2023-03-21T16:16:38.973Z,96095.38
2023-03-21T16:19:08.319Z,96090.88
2023-03-21T16:21:38.260Z,96086.31
2023-03-21T16:24:08.729Z,96092.16
2023-03-21T16:26:39.533Z,96085.41
2023-03-21T16:29:08.583Z,96099.50
2023-03-21T16:31:38.191Z,96097.84
2023-03-21T16:34:07.162Z,96100.28
2023-03-21T16:36:37.687Z,96098.66
2023-03-21T16:39:09.247Z,96110.91
2023-03-21T16:41:37.352Z,96095.56
2023-03-21T16:44:05.578Z,96106.03
2023-03-21T16:46:34.386Z,96104.84
2023-03-21T16:49:04.432Z,96106.19
2023-03-21T16:51:34.297Z,96109.72
2023-03-21T16:54:03.142Z,96102.16
2023-03-21T16:56:36.175Z,96110.22
2023-03-21T16:59:05.812Z,96110.13
2023-03-21T17:01:35.983Z,96106.66
2023-03-21T17:04:06.047Z,96108.59
2023-03-21T17:06:34.531Z,96112.47
2023-03-21T17:09:04.654Z,96108.63
2023-03-21T17:11:36.162Z,96112.50
2023-03-21T17:14:04.528Z,96107.41
2023-03-21T17:16:33.093Z,96113.94
2023-03-21T17:19:01.824Z,96111.59
2023-03-21T17:21:31.889Z,96116.81
2023-03-21T17:24:00.828Z,96117.88
2023-03-21T17:26:29.799Z,96114.09
2023-03-21T17:28:58.164Z,96110.31
2023-03-21T17:31:27.872Z,96114.41
2023-03-21T17:33:56.272Z,96106.38
2023-03-21T17:36:27.814Z,96114.00
2023-03-21T17:38:57.819Z,96116.41
2023-03-21T17:41:26.186Z,96118.13
2023-03-21T17:43:55.797Z,96109.88
2023-03-21T17:46:27.071Z,96111.09
2023-03-21T17:48:56.175Z,96120.41
2023-03-21T17:51:29.963Z,96118.25
2023-03-21T17:54:00.410Z,96114.88
2023-03-21T17:56:29.933Z,96113.84
2023-03-21T17:58:59.602Z,96113.25
2023-03-21T18:01:28.347Z,96111.22
2023-03-21T18:03:56.675Z,96119.06
2023-03-21T18:06:27.022Z,96113.53
2023-03-21T18:08:55.852Z,96112.22
2023-03-21T18:11:25.777Z,96115.78
2023-03-21T18:14:06.563Z,96123.69
2023-03-21T18:16:42.674Z,96124.66
2023-03-21T18:19:12.868Z,96114.44
2023-03-21T18:21:44.900Z,96111.00
2023-03-21T18:24:13.587Z,96114.78
2023-03-21T18:26:43.420Z,96121.00
2023-03-21T18:32:07.050Z,96123.50
2023-03-21T18:34:37.425Z,96131.78
2023-03-21T18:37:07.972Z,96136.56
2023-03-21T18:39:36.674Z,96134.84
2023-03-21T18:42:07.494Z,96137.44
2023-03-21T18:44:45.512Z,96139.81
2023-03-21T18:47:14.633Z,96136.19
2023-03-21T18:52:32.020Z,96140.72
2023-03-21T18:55:00.515Z,96141.78
2023-03-21T18:57:38.902Z,96146.50
2023-03-21T19:00:14.697Z,96151.88
2023-03-21T19:02:47.773Z,96148.56
2023-03-21T19:05:17.772Z,96142.22
2023-03-21T19:07:46.630Z,96149.66
2023-03-21T19:10:18.946Z,96146.16
2023-03-21T19:12:49.616Z,96147.19
2023-03-21T19:15:19.731Z,96146.78
2023-03-21T19:20:37.890Z,96148.66
2023-03-21T19:23:08.234Z,96144.53
2023-03-21T19:25:37.913Z,96140.66
2023-03-21T19:28:08.221Z,96143.53
2023-03-21T19:30:36.861Z,96137.81
2023-03-21T19:33:05.398Z,96146.66
2023-03-21T19:35:37.273Z,96149.72
2023-03-21T19:38:06.097Z,96150.50
2023-03-21T19:40:34.539Z,96158.81
2023-03-21T19:43:21.626Z,96158.41
2023-03-21T19:45:52.659Z,96157.59
2023-03-21T19:48:21.223Z,96157.38
2023-03-21T19:51:24.300Z,96160.28
2023-03-21T19:53:38.877Z,96164.81
2023-03-21T19:56:19.710Z,96158.66
2023-03-21T19:58:49.648Z,96162.34
2023-03-21T20:01:19.354Z,96163.00
2023-03-21T20:03:47.698Z,96165.28
2023-03-21T20:06:16.274Z,96165.50
2023-03-21T20:11:32.875Z,96161.38
2023-03-21T20:14:03.056Z,96164.25
2023-03-21T20:16:35.884Z,96175.41
2023-03-21T20:19:05.957Z,96166.72
2023-03-21T20:21:44.382Z,96168.38
2023-03-21T20:24:14.326Z,96167.38
2023-03-21T20:26:42.705Z,96164.06
2023-03-21T20:30:03.854Z,96169.41
2023-03-21T20:32:00.698Z,96172.72
2023-03-21T20:34:30.550Z,96174.78
2023-03-21T20:36:59.294Z,96176.63
2023-03-21T20:39:29.820Z,96179.09
2023-03-21T20:41:59.564Z,96177.25
2023-03-21T20:44:51.735Z,96176.63
2023-03-21T20:47:17.648Z,96174.78
2023-03-21T20:49:45.888Z,96171.69
2023-03-21T20:52:54.478Z,96182.38
2023-03-21T20:55:03.620Z,96171.03
2023-03-21T20:57:32.614Z,96175.31
2023-03-21T21:00:00.841Z,96173.88
2023-03-21T21:02:30.602Z,96172.81
2023-03-21T21:05:24.108Z,96171.97
2023-03-21T21:07:48.950Z,96163.13
2023-03-21T21:10:18.647Z,96162.94
2023-03-21T21:12:46.901Z,96168.03
2023-03-21T21:15:17.015Z,96166.56
2023-03-21T21:18:04.939Z,96165.69
2023-03-21T21:20:35.310Z,96171.38
2023-03-21T21:23:04.027Z,96177.50
2023-03-21T21:25:33.753Z,96168.25
2023-03-21T21:28:02.624Z,96171.31
2023-03-21T21:30:31.880Z,96163.25
2023-03-21T21:33:01.716Z,96154.38
2023-03-21T21:35:30.033Z,96164.38
2023-03-21T21:37:58.376Z,96160.00
2023-03-21T21:40:26.712Z,96166.31
2023-03-21T21:42:55.044Z,96166.44
2023-03-21T21:45:23.440Z,96169.28
2023-03-21T21:47:51.977Z,96163.84
2023-03-21T21:50:22.628Z,96165.25
2023-03-21T21:52:54.404Z,96160.63
2023-03-21T21:55:22.825Z,96166.81
2023-03-21T21:57:51.367Z,96155.44
2023-03-21T22:00:20.891Z,96163.13
2023-03-21T22:02:49.234Z,96168.69
2023-03-21T22:05:18.984Z,96164.09
2023-03-21T22:07:49.328Z,96158.91
2023-03-21T22:10:17.696Z,96155.22
2023-03-21T22:12:46.167Z,96163.19
2023-03-21T22:15:15.067Z,96167.44
2023-03-21T22:17:43.341Z,96175.34
2023-03-21T22:20:14.650Z,96170.47
2023-03-21T22:22:42.892Z,96170.31
2023-03-21T22:25:14.485Z,96165.81
2023-03-21T22:27:42.758Z,96172.41
2023-03-21T22:30:13.817Z,96175.53
2023-03-21T22:32:42.263Z,96184.81
2023-03-21T22:35:10.994Z,96186.00
2023-03-21T22:37:40.830Z,96181.88
2023-03-21T22:40:11.093Z,96181.38
2023-03-21T22:42:41.202Z,96179.25
2023-03-21T22:45:11.152Z,96183.19
2023-03-21T22:47:39.468Z,96187.38
2023-03-21T22:50:08.993Z,96179.78
2023-03-21T22:52:37.453Z,96187.88
2023-03-21T22:55:07.051Z,96186.50
2023-03-21T22:57:35.430Z,96181.34
2023-03-21T23:00:12.977Z,96176.97
2023-03-21T23:02:41.357Z,96183.09
2023-03-21T23:05:10.470Z,96194.00
2023-03-21T23:07:38.783Z,96188.94
2023-03-21T23:10:08.911Z,96189.22
2023-03-21T23:12:37.487Z,96183.19
2023-03-21T23:15:09.022Z,96189.09
2023-03-21T23:17:38.017Z,96187.03
2023-03-21T23:20:07.200Z,96185.75
2023-03-21T23:22:36.055Z,96183.16
2023-03-21T23:25:04.882Z,96184.47
2023-03-21T23:27:35.240Z,96180.03
2023-03-21T23:30:04.920Z,96177.75
2023-03-21T23:32:34.714Z,96179.41
2023-03-21T23:35:02.978Z,96179.69
2023-03-21T23:37:31.201Z,96184.03
2023-03-21T23:39:59.474Z,96176.75
2023-03-21T23:42:30.084Z,96179.53
2023-03-21T23:44:58.142Z,96175.41
2023-03-21T23:47:26.331Z,96174.63
2023-03-21T23:49:55.937Z,96176.91
2023-03-21T23:52:24.169Z,96176.13
2023-03-21T23:54:52.523Z,96176.47
2023-03-21T23:57:21.875Z,96170.34
2023-03-21T23:59:50.213Z,96165.72
